DRI-NNSC Building Weather observations

Data are for 10 minute period ending at time listed.
 Day   Time   Solar   Ave.   Ave.  Ave.  Vector  Max.   Baro.   Total    
  of    of     Rad.   Air    Rel.  Wind   Wind   Wind  Press.  Precip.   
Year   Day            Temp.  Hum.  Speed  Dir.   Gust                    
2014   (PST)  Kw/m2    F      %     mph   deg.    mph    mb.     in.     
-------------------------------------------------------------------------
 272    8:20   0.31   50.5    67    1.9   184      5   849.4    0.00 
 272    8:30   0.38   50.8    66    1.9   151      4   849.5    0.00 
 272    8:40   0.44   51.5    65    2.3   159      4   849.4    0.00 
 272    8:50   0.47   52.0    63    1.7   192      4   849.5    0.00 
 272    9:00   0.54   54.3    59    0.8   251      3   849.5    0.00 
 272    9:10   0.62   54.4    59    1.6   327      4   849.5    0.00 
 272    9:20   0.55   54.7    59    2.1   330      6   849.5    0.00 
 272    9:30   0.57   55.6    59    3.0   163      6   849.4    0.00 
 272    9:40   0.59   56.0    58    2.5   109      6   849.5    0.00 
 272    9:50   0.61   56.7    57    3.2   126      6   849.5    0.00 
 272   10:00   0.63   57.7    55    3.1   157      7   849.4    0.00 
 272   10:10   0.65   58.1    55    3.5   156      6   849.3    0.00 
 272   10:20   0.67   58.8    53    2.6   167      6   849.3    0.00 
 272   10:30   0.68   60.2    51    2.4   180      5   849.3    0.00 
 272   10:40   0.71   60.4    50    2.1   207      5   849.2    0.00 
 272   10:50   0.55   61.6    48    2.2   198      8   849.2    0.00 
 272   11:00   0.72   62.4    47    3.0   181      7   849.2    0.00 
 272   11:10   0.76   63.3    45    4.4   183      9   849.1    0.00 
 272   11:20   0.79   63.2    45    2.8   243      8   849.0    0.00 
 272   11:30   0.76   64.2    44    2.9   202      7   849.0    0.00 
 272   11:40   0.76   65.0    41    8.3   324     20   849.0    0.00 
 272   11:50   0.75   65.0    40    8.9   319     15   849.0    0.00 
 272   12:00   0.76   65.1    39    8.6   296     20   848.9    0.00 
 272   12:10   0.75   65.1    40   10.3   309     18   848.9    0.00 
 272   12:20   0.75   65.9    38    9.5   307     16   848.9    0.00 
 272   12:30   0.75   66.2    37    8.1   303     17   848.8    0.00 
 272   12:40   0.75   66.5    35    8.6   311     21   848.7    0.00 
 272   12:50   0.74   67.2    35    7.8   312     18   848.7    0.00 
 272   13:00   0.68   67.1    35    7.3   311     14   848.6    0.00 
 272   13:10   0.72   66.9    34    6.0   324     13   848.5    0.00 
 272   13:20   0.72   67.9    34    6.9   319     17   848.4    0.00 
 272   13:30   0.69   68.0    33    6.9   287     16   848.3    0.00 
 272   13:40   0.66   68.4    32    6.0   317     12   848.2    0.00 
 272   13:50   0.31   67.6    33    5.3   291     16   848.2    0.00 
 272   14:00   0.69   68.8    31    7.8   265     15   848.2    0.00 
 272   14:10   0.61   68.9    31    8.6   303     17   848.1    0.00 
 272   14:20   0.60   68.9    32    7.5   319     18   848.0    0.00 
 272   14:30   0.58   69.2    31    6.6   288     15   848.0    0.00 
 272   14:40   0.55   69.5    31    6.6   301     15   847.9    0.00 
 272   14:50   0.52   69.7    31    6.8   318     12   847.8    0.00 
 272   15:00   0.49   69.5    31    8.1   321     15   847.8    0.00 
 272   15:10   0.47   69.3    31    7.7   307     16   847.8    0.00 
 272   15:20   0.44   70.0    30    6.9   300     16   847.8    0.00 
 272   15:30   0.40   69.8    30    7.5   303     12   847.8    0.00 
 272   15:40   0.37   70.3    29    6.5   268     15   847.7    0.00 
 272   15:50   0.34   69.8    29    9.0   301     16   847.6    0.00 
 272   16:00   0.30   70.2    29    7.1   298     14   847.6    0.00 
 272   16:10   0.27   70.3    29    5.4   311     12   847.5    0.00 
 272   16:20   0.24   70.4    29    6.5   315     13   847.6    0.00 
 272   16:30   0.14   69.1    30    7.6   299     16   847.6    0.00 
 272   16:40   0.18   69.4    30    5.4   270     10   847.6    0.00 
 272   16:50   0.16   69.3    30    6.2   299     11   847.6    0.00 
 272   17:00   0.12   69.3    30    5.5   306     11   847.7    0.00 
 272   17:10   0.10   68.6    31    5.9   297     10   847.7    0.00 
 272   17:20   0.04   67.8    33    5.6   299     10   847.7    0.00 
 272   17:30   0.02   67.3    34    3.6   290      8   847.7    0.00 
 272   17:40   0.01   66.6    35    4.1   301      7   847.7    0.00 
 272   17:50   0.00   65.8    36    4.0   312      7   847.7    0.00 
 272   18:00   0.00   64.7    39    3.8   317      6   847.6    0.00 
 272   18:10   0.00   63.6    42    2.7   310      5   847.6    0.00 
 272   18:20   0.00   63.3    42    3.5   330      7   847.6    0.00 
 272   18:30   0.00   63.9    40    4.8   327      8   847.6    0.00 
 272   18:40   0.00   63.3    41    4.5   325      7   847.8    0.00 
 272   18:50   0.00   62.9    42    4.9   331      9   847.8    0.00 
 272   19:00   0.00   63.0    42    4.7   327      9   847.8    0.00 
 272   19:10   0.00   62.9    42    5.5   336     10   847.9    0.00 
 272   19:20   0.00   61.6    46    2.8   200      7   848.0    0.00 
 272   19:30   0.00   62.0    44    4.2   249      7   848.2    0.00 
 272   19:40   0.00   61.9    44    3.6   312      7   848.2    0.00 
 272   19:50   0.00   62.2    45    4.1   292      9   848.2    0.00 
 272   20:00   0.00   61.8    48    6.2   319     11   848.3    0.00 
 272   20:10   0.00   61.8    48    6.7   320     11   848.3    0.00 
 272   20:20   0.00   61.4    48    5.4   313      8   848.4    0.00 
 272   20:30   0.00   60.9    50    3.7   305      6   848.4    0.00 
 272   20:40   0.00   59.8    53    4.2   308      8   848.4    0.00 
 272   20:50   0.00   59.0    55    3.7   300      8   848.4    0.00 
 272   21:00   0.00   60.3    52    4.3   286      9   848.4    0.00 
 272   21:10   0.00   60.2    52    3.0   268      7   848.5    0.00 
 272   21:20   0.00   60.2    51    4.4   225      8   848.6    0.00 
 272   21:30   0.00   59.9    52    5.9   221      9   848.6    0.00 
 272   21:40   0.00   60.5    51    5.6   240     10   848.6    0.00 
 272   21:50   0.00   60.8    50    4.5   291      7   848.6    0.00 
 272   22:00   0.00   59.8    53    3.9   307      7   848.6    0.00 
 272   22:10   0.00   59.1    55    4.3   315      7   848.6    0.00 
 272   22:20   0.00   59.9    53    4.1   284      8   848.7    0.00 
 272   22:30   0.00   60.8    52    5.7   270     10   848.6    0.00 
 272   22:40   0.00   59.5    54    4.9   242     10   848.5    0.00 
 272   22:50   0.00   59.5    54    5.6   254     10   848.4    0.00 
 272   23:00   0.00   57.8    59    3.8   212      8   848.4    0.00 
 272   23:10   0.00   57.5    59    4.3   250      8   848.4    0.00 
 272   23:20   0.00   57.1    59    5.5   227     10   848.4    0.00 
 272   23:30   0.00   59.4    53    7.1   230     12   848.3    0.00 
 272   23:40   0.00   58.6    55    4.0   288      8   848.2    0.00 
 272   23:50   0.00   59.5    52    6.5   261     11   848.2    0.00 
 273    0:00   0.00   60.6    49    6.9   238     14   848.2    0.00 
 273    0:10   0.00   59.3    52    3.7   278      9   848.1    0.00 
 273    0:20   0.00   58.7    53    2.4   311      6   848.1    0.00 
 273    0:30   0.00   58.3    52    1.9   336      4   848.1    0.00 
 273    0:40   0.00   59.4    45    3.3   302      7   848.0    0.00 
 273    0:50   0.00   58.0    50    1.9   269      4   848.0    0.00 
 273    1:00   0.00   58.7    46    3.5   279      7   848.0    0.00 
 273    1:10   0.00   59.2    44    3.4   264      8   848.0    0.00 
 273    1:20   0.00   58.4    46    3.8   280      7   848.1    0.00 
 273    1:30   0.00   57.1    49    2.7   304      5   848.1    0.00 
 273    1:40   0.00   57.0    51    2.9   335      6   848.1    0.00 
 273    1:50   0.00   56.6    51    2.5   356      6   847.9    0.00 
 273    2:00   0.00   57.9    47    4.1   348      8   847.8    0.00 
 273    2:10   0.00   56.4    54    4.5   324      9   847.7    0.00 
 273    2:20   0.00   55.2    58    5.5   343     12   847.7    0.00 
 273    2:30   0.00   54.5    59    3.9   253      9   847.8    0.00 
 273    2:40   0.00   54.5    57    3.1   304      5   847.8    0.00 
 273    2:50   0.00   54.2    58    3.4   328      9   847.7    0.00 
 273    3:00   0.00   55.6    53    2.3   323      5   847.7    0.00 
 273    3:10   0.00   54.6    57    3.7     7      8   847.8    0.00 
 273    3:20   0.00   53.6    59    3.2   325      7   847.7    0.00 
 273    3:30   0.00   52.7    61    2.9   287      7   847.7    0.00 
 273    3:40   0.00   52.4    61    2.6   259      6   847.7    0.00 
 273    3:50   0.00   53.0    59    2.8   308      7   847.7    0.00 
 273    4:00   0.00   52.8    59    4.3   314     10   847.7    0.00 
 273    4:10   0.00   53.2    58    7.3   338     13   847.7    0.00 
 273    4:20   0.00   53.5    59   10.0   342     17   847.8    0.00 
 273    4:30   0.00   53.3    60   10.8   344     17   847.9    0.00 
 273    4:40   0.00   52.7    62    8.7   335     14   847.8    0.00 
 273    4:50   0.00   52.5    64    8.1   338     14   847.7    0.00 
 273    5:00   0.00   52.7    64    7.7   338     14   847.8    0.00 
 273    5:10   0.00   52.2    66    7.8   336     12   847.8    0.00 
 273    5:20   0.00   52.4    65    7.0   331     16   847.8    0.00 
 273    5:30   0.00   52.7    64    8.7   336     14   847.9    0.00 
 273    5:40   0.00   52.2    65   10.8   340     17   848.0    0.00 
 273    5:50   0.00   52.2    66   10.7   347     17   848.0    0.00 
 273    6:00   0.00   51.8    67   11.0   340     18   848.1    0.00 
 273    6:10   0.01   51.2    69    9.2   345     15   848.4    0.00 
 273    6:20   0.03   51.0    69    9.5   345     17   848.4    0.00 
 273    6:30   0.06   51.4    67   10.2   356     17   848.5    0.00 
 273    6:40   0.09   52.5    64    7.6   349     15   848.6    0.00 
 273    6:50   0.11   53.1    63    6.1   348     11   848.7    0.00 
 273    7:00   0.14   53.9    62    3.3   320      7   848.8    0.00 
 273    7:10   0.16   53.3    64    1.8   240      4   848.9    0.00 
 273    7:20   0.19   54.3    62    1.1     4      3   849.0    0.00 
 273    7:30   0.19   54.6    62    1.4    19      4   849.0    0.00 
 273    7:40   0.26   56.1    59    1.2   118      4   849.0    0.00 
 273    7:50   0.29   56.6    59    2.0    87      5   849.0    0.00 
 273    8:00   0.23   57.6    56    1.4    88      4   849.0    0.00 
 273    8:10   0.34   57.3    57    2.7    42      5   848.9    0.00 

Return to NNSC graphs page.


Western Regional Climate Center,wrcc@dri.edu